Montrose, Pennsylvania
Current Conditions -  °F | °C
As of 2:53 AM on Saturday 20 Dec 2014 (Local Time) from KBGM Reporting Station
Overcast Overcast  
Wind Chill: 13°   Ceiling: 700
Heat Index: 24°   Visibility: 10mi
Dew Point: 21°   Wind: 12mph
Humidity: 88%   Direction: 350°N
Pressure: 30.13"   Gusts: NA
Location:  41.83°N, 75.88°W
Report Text: KBGM 200753Z AUTO 35010KT 10SM OVC007 M04/M06 A3013 RMK AO2 CIG 006V011 SLP226 T10441061
Loading
Personal Weather Stations






























Interactive Weather Map New forecast layout! Learn more

10-Day Weather Forecast

Advertisements
Track Severe Weather on mobile